Time;durP1;ratioP1;P1;durP2;ratioP2;P2;SDS_P1;SDS_P2;PMS_P1;PMS_P2;Temp;Humidity;BMP_temperature;BMP_pressure;BME280_temperature;BME280_humidity;BME280_pressure;Samples;Min_cycle;Max_cycle;Signal;HPM_P1;HPM_P2
2023/10/19 00:00:21;;;;;;;7.38;4.72;;;;;;;5.13;100.00;98280.22;5078754;27;20405;-70
2023/10/19 00:02:54;;;;;;;4.90;4.35;;;;;;;5.22;100.00;98287.47;5096864;27;20039;-67
2023/10/19 00:05:20;;;;;;;9.77;4.70;;;;;;;5.17;100.00;98279.03;5095727;27;20030;-67
2023/10/19 00:07:46;;;;;;;8.20;5.15;;;;;;;5.18;100.00;98282.53;5095678;27;20570;-67
2023/10/19 00:10:15;;;;;;;6.43;4.25;;;;;;;5.16;100.00;98290.56;5096526;27;20055;-67
2023/10/19 00:12:39;;;;;;;8.52;5.28;;;;;;;5.10;100.00;98285.69;5096806;27;20128;-67
2023/10/19 00:15:05;;;;;;;5.47;4.30;;;;;;;5.11;100.00;98287.38;5096710;27;20126;-67
2023/10/19 00:17:32;;;;;;;9.00;5.20;;;;;;;5.14;100.00;98286.34;5061846;27;20600;-67
2023/10/19 00:22:44;;;;;;;6.95;4.88;;;;;;;5.11;100.00;98293.53;5038200;28;20107;-67
2023/10/19 00:25:13;;;;;;;5.93;4.70;;;;;;;5.17;100.00;98280.84;5057106;28;20143;-67
2023/10/19 00:27:37;;;;;;;7.45;4.97;;;;;;;5.14;100.00;98292.47;5052985;28;20051;-67
2023/10/19 00:30:06;;;;;;;5.93;4.68;;;;;;;5.13;100.00;98285.50;5074396;28;20059;-67
2023/10/19 00:32:31;;;;;;;7.28;5.60;;;;;;;5.16;100.00;98284.44;5074191;28;20052;-68
2023/10/19 00:34:55;;;;;;;8.32;4.82;;;;;;;5.18;100.00;98277.25;5055392;28;20042;-68
2023/10/19 00:37:26;;;;;;;7.38;4.57;;;;;;;5.23;100.00;98278.59;5071893;28;20043;-67
2023/10/19 00:39:54;;;;;;;6.53;4.90;;;;;;;5.22;100.00;98281.34;5075535;28;20051;-67
2023/10/19 00:42:23;;;;;;;5.65;3.95;;;;;;;5.32;100.00;98279.72;5084765;28;20043;-67
2023/10/19 00:44:51;;;;;;;7.13;4.78;;;;;;;5.27;100.00;98276.59;5073540;28;20481;-67
2023/10/19 00:47:18;;;;;;;8.18;5.38;;;;;;;5.17;100.00;98271.13;5056535;28;20132;-69
2023/10/19 00:49:44;;;;;;;7.57;5.45;;;;;;;5.20;100.00;98278.81;5073679;28;20800;-70
2023/10/19 00:52:12;;;;;;;8.32;5.82;;;;;;;5.20;100.00;98277.97;5072664;28;20515;-69
2023/10/19 00:54:51;;;;;;;7.43;5.68;;;;;;;5.15;100.00;98273.03;5073267;28;20104;-70
2023/10/19 00:57:20;;;;;;;7.10;4.90;;;;;;;5.17;100.00;98275.56;5056169;28;20096;-70
2023/10/19 00:59:55;;;;;;;9.05;5.35;;;;;;;5.09;100.00;98284.00;5085033;27;20047;-70
2023/10/19 01:04:55;;;;;;;9.43;5.15;;;;;;;5.05;100.00;98279.91;5077925;27;20408;-70
2023/10/19 01:07:22;;;;;;;7.13;5.15;;;;;;;5.13;100.00;98288.13;5061459;27;20050;-70
2023/10/19 01:09:53;;;;;;;9.55;5.32;;;;;;;5.14;100.00;98286.34;5095924;27;20775;-70
2023/10/19 01:12:39;;;;;;;7.60;5.65;;;;;;;5.11;100.00;98276.81;5102440;27;20074;-70
2023/10/19 01:15:06;;;;;;;;;;;;;;;5.22;100.00;98278.69;5096172;27;20054;-69
2023/10/19 01:17:31;;;;;;;7.65;5.85;;;;;;;5.11;100.00;98282.09;5077548;28;19915;-70
2023/10/19 01:19:58;;;;;;;7.55;5.53;;;;;;;5.11;100.00;98276.81;5095813;27;20513;-69
2023/10/19 01:22:26;;;;;;;5.90;4.40;;;;;;;5.11;100.00;98276.81;5095734;27;20062;-69
2023/10/19 01:24:53;;;;;;;5.43;4.68;;;;;;;5.04;100.00;98265.00;5097462;27;20150;-67
2023/10/19 01:27:17;;;;;;;9.95;5.35;;;;;;;5.12;100.00;98278.50;5097740;27;20047;-66
2023/10/19 01:29:43;;;;;;;6.88;5.32;;;;;;;5.07;100.00;98270.09;5115926;27;20097;-66
2023/10/19 01:32:11;;;;;;;6.20;4.90;;;;;;;5.07;100.00;98264.81;5115796;27;20130;-67
2023/10/19 01:34:37;;;;;;;6.95;5.43;;;;;;;5.09;100.00;98266.38;5097905;27;20047;-67
2023/10/19 01:37:03;;;;;;;8.70;5.90;;;;;;;5.09;100.00;98269.00;5097376;27;20508;-66
2023/10/19 01:39:35;;;;;;;6.07;4.75;;;;;;;5.13;100.00;98263.50;5114400;27;20587;-66
2023/10/19 01:41:59;;;;;;;7.28;5.43;;;;;;;5.17;100.00;98262.34;5115993;27;20796;-66
2023/10/19 01:44:25;;;;;;;7.55;6.03;;;;;;;5.08;100.00;98264.69;5088560;28;20412;-66
2023/10/19 01:46:49;;;;;;;6.32;5.18;;;;;;;5.07;100.00;98264.81;5094061;28;20039;-66
2023/10/19 01:49:14;;;;;;;9.70;5.85;;;;;;;5.04;100.00;98265.88;5076986;28;20054;-67
2023/10/19 01:51:39;;;;;;;6.40;5.03;;;;;;;5.03;100.00;98268.59;5095152;28;20122;-67
2023/10/19 01:54:06;;;;;;;5.75;4.30;;;;;;;5.07;100.00;98273.56;5094048;28;20041;-67
2023/10/19 01:56:33;;;;;;;6.80;4.82;;;;;;;5.07;100.00;98270.09;5095115;28;20043;-67
2023/10/19 01:58:58;;;;;;;6.57;5.68;;;;;;;5.10;100.00;98264.56;5094933;27;20500;-67
2023/10/19 02:03:57;;;;;;;6.03;4.88;;;;;;;5.03;100.00;98258.88;5096625;27;20068;-67
2023/10/19 02:09:28;;;;;;;6.55;5.40;;;;;;;5.13;100.00;98264.34;5097520;27;20103;-67
2023/10/19 02:11:57;;;;;;;7.13;5.53;;;;;;;5.13;100.00;98267.00;5109113;27;20450;-67
2023/10/19 02:14:26;;;;;;;7.47;4.82;;;;;;;5.19;100.00;98263.94;5101311;27;20034;-67
2023/10/19 02:16:53;;;;;;;8.20;6.22;;;;;;;5.16;100.00;98265.94;5119596;27;20610;-67
2023/10/19 02:19:20;;;;;;;8.00;5.70;;;;;;;5.08;100.00;98261.19;5119322;27;20474;-67
2023/10/19 02:21:47;;;;;;;8.95;6.35;;;;;;;5.09;100.00;98262.88;5119434;27;20039;-69
2023/10/19 02:24:15;;;;;;;9.27;5.63;;;;;;;5.03;100.00;98266.81;5100890;27;20880;-69
2023/10/19 02:26:41;;;;;;;6.22;5.43;;;;;;;5.11;100.00;98264.47;5119294;27;20043;-69
2023/10/19 02:29:09;;;;;;;7.15;5.53;;;;;;;5.03;100.00;98265.97;5100605;27;20733;-70
2023/10/19 02:31:37;;;;;;;8.80;5.60;;;;;;;5.03;100.00;98266.81;5083436;27;20420;-69
2023/10/19 02:34:04;;;;;;;8.32;5.10;;;;;;;5.01;100.00;98271.34;5083764;27;20038;-70
2023/10/19 02:36:30;;;;;;;7.97;6.38;;;;;;;4.94;100.00;98264.84;5119159;27;20042;-70
2023/10/19 02:38:59;;;;;;;7.07;5.20;;;;;;;4.98;100.00;98262.78;5100615;27;20413;-70
2023/10/19 02:41:23;;;;;;;8.43;6.15;;;;;;;4.94;100.00;98261.34;5119080;27;20109;-70
2023/10/19 02:44:00;;;;;;;6.90;5.93;;;;;;;4.90;100.00;98262.50;5100899;27;20125;-70
2023/10/19 02:46:25;;;;;;;7.75;5.53;;;;;;;5.00;100.00;98268.81;5117479;27;20035;-70
2023/10/19 02:48:50;;;;;;;9.27;5.57;;;;;;;4.98;100.00;98270.72;5097319;27;20150;-69
2023/10/19 02:51:15;;;;;;;11.05;6.45;;;;;;;4.89;100.00;98272.22;5079750;27;20168;-70
2023/10/19 02:53:40;;;;;;;6.93;4.25;;;;;;;4.98;100.00;98268.06;5079926;27;20125;-69
2023/10/19 02:56:12;;;;;;;6.85;5.85;;;;;;;4.91;100.00;98272.97;5097118;27;20110;-70
2023/10/19 02:58:42;;;;;;;7.25;5.10;;;;;;;4.91;100.00;98270.31;5079921;27;20046;-69
2023/10/19 03:01:17;;;;;;;6.35;5.63;;;;;;;4.89;100.00;98253.72;5079943;27;20066;-70
2023/10/19 03:03:43;;;;;;;6.53;5.10;;;;;;;4.95;100.00;98261.25;5079573;27;20055;-69
2023/10/19 03:06:09;;;;;;;7.57;5.20;;;;;;;4.87;100.00;98266.19;5094300;27;20080;-70
2023/10/19 03:08:35;;;;;;;7.50;5.70;;;;;;;4.91;100.00;98264.19;5116921;27;20069;-69
2023/10/19 03:11:03;;;;;;;7.70;6.13;;;;;;;4.91;100.00;98265.03;5082857;27;20042;-70
2023/10/19 03:13:28;;;;;;;7.53;5.20;;;;;;;4.92;100.00;98256.16;5099968;27;20038;-67
2023/10/19 03:15:53;;;;;;;6.47;4.95;;;;;;;4.93;100.00;98262.28;5117334;27;20547;-68
2023/10/19 03:18:18;;;;;;;6.90;4.60;;;;;;;4.84;100.00;98262.94;5118354;27;20484;-67
2023/10/19 03:20:43;;;;;;;8.00;5.75;;;;;;;4.81;100.00;98252.59;5082707;27;20045;-68
2023/10/19 03:23:10;;;;;;;7.15;5.35;;;;;;;4.82;100.00;98267.47;5118388;27;20035;-66
2023/10/19 03:28:18;;;;;;;7.18;5.68;;;;;;;4.82;100.00;98263.06;5097280;27;20087;-66
2023/10/19 03:30:43;;;;;;;17.65;5.78;;;;;;;4.86;100.00;98268.94;5097390;27;20389;-67
2023/10/19 03:33:12;;;;;;;7.43;5.55;;;;;;;4.98;100.00;98271.56;5079085;27;20031;-67
2023/10/19 03:35:38;;;;;;;6.88;5.28;;;;;;;4.99;100.00;98265.34;5097535;27;20098;-66
2023/10/19 03:38:08;;;;;;;8.63;5.32;;;;;;;5.01;100.00;98265.22;5078839;27;20531;-66
2023/10/19 03:40:34;;;;;;;8.07;5.63;;;;;;;4.91;100.00;98265.03;5080002;27;20178;-66
2023/10/19 03:42:58;;;;;;;7.78;5.25;;;;;;;4.91;100.00;98264.19;5117649;27;20078;-67
2023/10/19 03:45:24;;;;;;;7.50;5.30;;;;;;;4.95;100.00;98271.81;5099233;27;20061;-66
2023/10/19 03:47:50;;;;;;;7.18;5.80;;;;;;;5.03;100.00;98263.31;5117716;27;20500;-67
2023/10/19 03:50:20;;;;;;;7.35;5.68;;;;;;;4.97;100.00;98269.03;5117542;27;20516;-66
2023/10/19 03:52:45;;;;;;;6.72;5.38;;;;;;;4.95;100.00;98265.69;5099047;27;20045;-66
2023/10/19 03:55:16;;;;;;;6.90;6.18;;;;;;;4.91;100.00;98266.84;5101770;27;20043;-67
2023/10/19 03:57:50;;;;;;;8.68;6.50;;;;;;;4.89;100.00;98268.72;5095784;27;20039;-67
2023/10/19 04:00:16;;;;;;;6.97;4.97;;;;;;;4.96;100.00;98273.50;5097092;27;20854;-66
2023/10/19 04:02:42;;;;;;;7.75;5.45;;;;;;;4.98;100.00;98276.00;5097149;27;20071;-67
2023/10/19 04:05:09;;;;;;;9.25;6.10;;;;;;;4.98;100.00;98270.72;5061284;27;20054;-66
2023/10/19 04:07:33;;;;;;;7.97;5.60;;;;;;;5.00;100.00;98267.03;5096948;27;20049;-67
2023/10/19 04:10:03;;;;;;;7.43;5.10;;;;;;;5.10;100.00;98270.69;5045670;28;20055;-68
2023/10/19 04:12:30;;;;;;;8.13;5.70;;;;;;;5.05;100.00;98272.00;5076537;28;20043;-67
2023/10/19 04:14:56;;;;;;;8.00;6.00;;;;;;;4.97;100.00;98264.59;5076077;28;20043;-67
2023/10/19 04:17:23;;;;;;;6.93;5.50;;;;;;;4.96;100.00;98272.66;5075978;28;20413;-67
2023/10/19 04:19:55;;;;;;;7.88;6.13;;;;;;;5.01;100.00;98273.16;5077574;27;20039;-68
2023/10/19 04:22:23;;;;;;;8.30;6.18;;;;;;;4.99;100.00;98275.06;5080053;27;20494;-68
2023/10/19 04:24:47;;;;;;;8.27;6.35;;;;;;;4.93;100.00;98272.84;5076020;28;20082;-68
2023/10/19 04:27:12;;;;;;;8.60;6.13;;;;;;;4.97;100.00;98275.16;5075159;28;20063;-67
2023/10/19 04:29:39;;;;;;;7.57;5.47;;;;;;;4.86;100.00;98264.50;5057812;28;20043;-68
2023/10/19 04:32:06;;;;;;;8.00;5.88;;;;;;;5.01;100.00;98273.16;5057624;28;20039;-67
2023/10/19 04:34:31;;;;;;;8.00;4.95;;;;;;;5.03;100.00;98277.38;5075969;28;20394;-66
2023/10/19 04:36:57;;;;;;;8.02;6.10;;;;;;;5.06;100.00;98281.59;5075673;28;20421;-67
2023/10/19 04:39:22;;;;;;;9.35;6.15;;;;;;;5.00;100.00;98280.22;5057424;28;20409;-67
2023/10/19 04:41:49;;;;;;;11.68;5.78;;;;;;;4.93;100.00;98278.13;5075749;28;20040;-68
2023/10/19 04:44:15;;;;;;;8.23;5.95;;;;;;;5.00;100.00;98279.38;5075682;28;20142;-67
2023/10/19 04:46:40;;;;;;;9.45;6.30;;;;;;;5.04;100.00;98286.16;5040466;28;20501;-67
2023/10/19 04:49:04;;;;;;;7.68;6.05;;;;;;;4.97;100.00;98276.94;5075580;28;20497;-67
2023/10/19 04:51:30;;;;;;;7.78;5.97;;;;;;;4.92;100.00;98272.00;5056831;28;20535;-67
2023/10/19 04:53:55;;;;;;;10.27;6.95;;;;;;;5.02;100.00;98283.59;5058432;28;20049;-67
2023/10/19 04:56:20;;;;;;;8.52;6.03;;;;;;;5.05;100.00;98278.13;5077581;28;20040;-68
2023/10/19 04:58:44;;;;;;;8.02;5.97;;;;;;;5.10;100.00;98281.25;5077251;28;20104;-68
2023/10/19 05:01:11;;;;;;;7.93;6.15;;;;;;;5.10;100.00;98269.84;5077082;28;20035;-67
2023/10/19 05:03:36;;;;;;;6.60;4.90;;;;;;;5.20;100.00;98278.81;5075569;28;20043;-67
2023/10/19 05:06:01;;;;;;;8.23;6.20;;;;;;;5.13;100.00;98274.06;5075380;28;20481;-67
2023/10/19 05:08:25;;;;;;;8.85;5.97;;;;;;;5.11;100.00;98271.53;5077370;27;20372;-67
2023/10/19 05:10:54;;;;;;;8.80;5.63;;;;;;;5.22;100.00;98282.19;5095627;27;20576;-67
2023/10/19 05:13:19;;;;;;;7.03;5.32;;;;;;;5.24;100.00;98279.44;5096471;27;20049;-66
2023/10/19 05:15:43;;;;;;;6.95;5.57;;;;;;;5.21;100.00;98280.50;5097480;27;20496;-68
2023/10/19 05:18:08;;;;;;;7.40;5.68;;;;;;;5.18;100.00;98278.09;5116168;27;20518;-68
2023/10/19 05:20:33;;;;;;;7.25;5.35;;;;;;;5.22;100.00;98276.91;5097497;27;20049;-66
2023/10/19 05:22:57;;;;;;;6.80;5.00;;;;;;;5.26;100.00;98282.81;5115999;27;20052;-66
2023/10/19 05:25:23;;;;;;;10.48;5.90;;;;;;;5.24;100.00;98272.34;5097418;27;20049;-67
2023/10/19 05:27:48;;;;;;;7.65;5.35;;;;;;;5.27;100.00;98280.06;5097582;27;20119;-67
2023/10/19 05:30:13;;;;;;;7.50;6.32;;;;;;;5.33;100.00;98292.00;5116063;27;20141;-68
2023/10/19 05:32:38;;;;;;;7.22;6.05;;;;;;;5.36;100.00;98291.78;5114216;27;20099;-67
2023/10/19 05:35:04;;;;;;;6.80;5.25;;;;;;;5.35;100.00;98290.94;5095345;28;20050;-69
2023/10/19 05:37:31;;;;;;;7.45;5.00;;;;;;;5.45;100.00;98297.25;5095624;28;20039;-67
2023/10/19 05:39:56;;;;;;;8.05;5.97;;;;;;;5.40;100.00;98291.47;5098870;27;20075;-67
2023/10/19 05:42:22;;;;;;;6.38;5.13;;;;;;;5.41;100.00;98295.78;5099902;27;20050;-67
2023/10/19 05:44:46;;;;;;;8.15;6.57;;;;;;;5.45;100.00;98291.94;5099610;27;20189;-67
2023/10/19 05:47:11;;;;;;;7.53;5.32;;;;;;;5.58;100.00;98299.84;5099841;27;20121;-67
2023/10/19 05:49:35;;;;;;;7.15;5.60;;;;;;;5.61;100.00;98297.00;5100086;27;20035;-68
2023/10/19 05:52:03;;;;;;;8.70;5.25;;;;;;;5.64;100.00;98294.13;5099508;27;20043;-68
2023/10/19 05:54:27;;;;;;;8.38;5.82;;;;;;;5.64;100.00;98301.22;5099295;27;20054;-68
2023/10/19 05:56:52;;;;;;;7.72;5.68;;;;;;;5.68;100.00;98302.66;5099416;27;20047;-68
2023/10/19 05:59:17;;;;;;;6.95;5.30;;;;;;;5.72;100.00;98296.19;5099357;27;20047;-67
2023/10/19 06:01:42;;;;;;;5.85;5.13;;;;;;;5.83;100.00;98301.53;5099459;27;20096;-67
2023/10/19 06:04:07;;;;;;;7.35;5.15;;;;;;;5.87;100.00;98302.19;5107478;27;20071;-67
2023/10/19 06:06:31;;;;;;;8.00;5.10;;;;;;;5.82;100.00;98303.34;5099195;27;20039;-68
2023/10/19 06:08:57;;;;;;;6.70;5.25;;;;;;;5.76;100.00;98290.56;5098849;27;20063;-69
2023/10/19 06:11:22;;;;;;;5.45;4.55;;;;;;;5.90;100.00;98299.31;5098829;27;20079;-68
2023/10/19 06:13:47;;;;;;;8.18;5.28;;;;;;;5.97;100.00;98301.41;5080657;27;20149;-68
2023/10/19 06:16:12;;;;;;;8.27;5.38;;;;;;;6.02;100.00;98295.75;5080411;27;20046;-67
2023/10/19 06:18:36;;;;;;;6.82;5.45;;;;;;;6.07;100.00;98299.78;5069349;27;20051;-67
2023/10/19 06:21:01;;;;;;;6.07;4.97;;;;;;;6.12;100.00;98294.97;5114655;27;20045;-68
2023/10/19 06:23:26;;;;;;;7.15;4.72;;;;;;;6.21;100.00;98301.34;5101227;27;20054;-67
2023/10/19 06:25:51;;;;;;;9.05;5.97;;;;;;;6.28;100.00;98305.25;5098673;27;20042;-68
2023/10/19 06:28:17;;;;;;;6.13;5.05;;;;;;;6.39;100.00;98307.94;5099121;27;20043;-67
2023/10/19 06:30:42;;;;;;;6.18;4.47;;;;;;;6.44;100.00;98297.81;5080239;27;20532;-69
2023/10/19 06:33:07;;;;;;;5.90;4.63;;;;;;;6.46;100.00;98305.66;5098901;27;20509;-67
2023/10/19 06:35:33;;;;;;;5.90;4.35;;;;;;;6.39;100.00;98299.16;5098647;27;20450;-68
2023/10/19 06:38:02;;;;;;;8.60;4.82;;;;;;;6.48;100.00;98307.22;5098384;27;20493;-68
2023/10/19 06:40:28;;;;;;;5.78;3.97;;;;;;;6.57;99.83;98305.69;5098511;27;20043;-68
2023/10/19 06:42:56;;;;;;;5.07;4.15;;;;;;;6.59;99.72;98297.63;5098671;27;20043;-68
2023/10/19 06:45:20;;;;;;;5.97;4.25;;;;;;;6.67;99.14;98309.31;5114135;27;20046;-67
2023/10/19 06:47:47;;;;;;;7.40;4.85;;;;;;;6.68;98.84;98295.09;5119625;27;20180;-67
2023/10/19 06:50:15;;;;;;;5.85;4.57;;;;;;;6.73;98.37;98297.41;5099092;27;20039;-68
2023/10/19 06:52:40;;;;;;;6.47;4.80;;;;;;;6.74;97.27;98302.59;5118903;27;20050;-67
2023/10/19 06:55:13;;;;;;;7.32;4.78;;;;;;;6.80;96.88;98301.25;5108721;27;20043;-68
2023/10/19 06:57:44;;;;;;;8.38;5.45;;;;;;;6.87;96.39;98300.69;5100883;27;20522;-67
2023/10/19 07:00:19;;;;;;;7.80;5.38;;;;;;;6.93;95.80;98292.25;5101643;27;20115;-67
2023/10/19 07:02:45;;;;;;;8.00;4.90;;;;;;;7.10;95.58;98300.69;5082725;27;20148;-68
2023/10/19 07:05:11;;;;;;;8.77;6.20;;;;;;;7.16;94.29;98297.53;5099969;27;20084;-68
2023/10/19 07:07:39;;;;;;;8.23;5.18;;;;;;;7.30;94.67;98305.25;5081426;27;20039;-68
2023/10/19 07:10:04;;;;;;;7.18;5.32;;;;;;;7.44;94.26;98299.69;5079376;27;20055;-68
2023/10/19 07:12:29;;;;;;;7.40;5.05;;;;;;;7.58;93.85;98296.75;5098241;27;20047;-68
2023/10/19 07:14:54;;;;;;;6.25;3.92;;;;;;;7.70;93.25;98302.03;5082659;27;20039;-68
2023/10/19 07:17:18;;;;;;;3.80;3.30;;;;;;;7.80;91.94;98300.31;5100743;27;20047;-68
2023/10/19 07:19:43;;;;;;;4.30;3.78;;;;;;;7.91;91.33;98305.59;5100895;27;20122;-68
2023/10/19 07:22:09;;;;;;;4.65;3.33;;;;;;;7.99;89.43;98304.03;5101007;27;20039;-68
2023/10/19 07:24:36;;;;;;;4.32;3.03;;;;;;;8.05;86.87;98305.31;5114286;27;20023;-68
2023/10/19 07:27:04;;;;;;;5.38;3.70;;;;;;;8.03;87.60;98305.44;5122667;27;20099;-68
2023/10/19 07:29:30;;;;;;;5.60;4.50;;;;;;;7.84;86.13;98297.31;5123132;27;20027;-67
2023/10/19 07:31:55;;;;;;;5.97;4.68;;;;;;;7.77;85.51;98312.06;5115005;27;20119;-68
2023/10/19 07:34:25;;;;;;;4.82;4.25;;;;;;;7.69;86.87;98308.31;5107312;27;20043;-68
2023/10/19 07:36:49;;;;;;;5.43;4.22;;;;;;;7.52;85.95;98312.34;5112751;27;20050;-67
2023/10/19 07:39:18;;;;;;;5.88;4.35;;;;;;;7.43;86.63;98313.94;5123252;27;20015;-67
2023/10/19 07:41:43;;;;;;;6.32;4.70;;;;;;;7.19;86.59;98315.88;5103864;27;20047;-67
2023/10/19 07:44:08;;;;;;;5.13;4.13;;;;;;;6.99;86.66;98313.94;5100671;27;20050;-67
2023/10/19 07:46:33;;;;;;;5.65;4.10;;;;;;;7.00;87.63;98316.44;5097492;27;20531;-67
2023/10/19 07:49:00;;;;;;;4.90;3.80;;;;;;;6.91;87.90;98315.34;5078969;27;20471;-67
2023/10/19 07:51:25;;;;;;;4.53;3.70;;;;;;;6.77;88.20;98323.53;5097200;27;20043;-66
2023/10/19 07:53:50;;;;;;;8.40;5.25;;;;;;;6.65;88.63;98321.84;5097314;27;20043;-67
2023/10/19 07:56:14;;;;;;;6.40;4.10;;;;;;;6.55;88.42;98320.81;5097058;27;20100;-67
2023/10/19 07:58:41;;;;;;;4.65;3.90;;;;;;;6.52;88.42;98331.69;5097176;27;20957;-68
2023/10/19 08:01:06;;;;;;;6.43;5.15;;;;;;;6.45;89.16;98325.97;5078282;27;20038;-67
2023/10/19 08:03:30;;;;;;;5.18;4.15;;;;;;;6.41;89.61;98329.00;5061983;27;20129;-67
2023/10/19 08:05:55;;;;;;;5.43;4.35;;;;;;;6.32;90.06;98332.34;5095884;27;20038;-67
2023/10/19 08:08:19;;;;;;;6.80;4.60;;;;;;;6.31;90.46;98331.50;5096791;27;20128;-67
2023/10/19 08:10:44;;;;;;;5.57;4.20;;;;;;;6.40;91.42;98329.94;5097769;27;20051;-68
2023/10/19 08:13:09;;;;;;;5.15;3.90;;;;;;;6.41;91.73;98331.66;5117769;27;20049;-67
2023/10/19 08:15:34;;;;;;;5.50;4.60;;;;;;;6.48;92.54;98324.91;5098928;27;20046;-67
2023/10/19 08:17:58;;;;;;;4.85;4.07;;;;;;;6.59;92.42;98330.22;5117944;27;20055;-68
2023/10/19 08:20:23;;;;;;;4.93;4.18;;;;;;;6.70;93.37;98332.91;5099132;27;20129;-67
2023/10/19 08:22:48;;;;;;;4.47;3.63;;;;;;;6.80;94.24;98328.59;5117607;27;20046;-68
2023/10/19 08:25:14;;;;;;;8.27;4.00;;;;;;;6.91;94.17;98331.25;5117545;27;20042;-68
2023/10/19 08:27:45;;;;;;;5.63;4.30;;;;;;;6.98;94.37;98329.00;5098281;27;20046;-67
2023/10/19 08:30:12;;;;;;;4.97;4.00;;;;;;;7.02;94.42;98330.41;5096912;27;20042;-67
2023/10/19 08:32:37;;;;;;;5.93;4.40;;;;;;;7.06;94.63;98342.47;5096354;27;20039;-68
2023/10/19 08:35:04;;;;;;;5.03;3.70;;;;;;;7.07;94.06;98343.31;5096512;27;20038;-68
2023/10/19 08:37:29;;;;;;;4.85;3.92;;;;;;;7.12;94.58;98341.97;5096798;27;20050;-67
2023/10/19 08:39:54;;;;;;;5.68;4.43;;;;;;;7.12;94.51;98341.13;5099985;27;20054;-68
2023/10/19 08:42:20;;;;;;;7.82;3.63;;;;;;;7.00;94.25;98328.88;5116943;27;20594;-68
2023/10/19 08:44:45;;;;;;;6.95;4.15;;;;;;;7.00;93.16;98336.81;5116716;27;20071;-69
2023/10/19 08:47:12;;;;;;;6.22;4.03;;;;;;;6.85;93.51;98339.69;5116575;27;20073;-68
2023/10/19 08:49:36;;;;;;;5.80;4.15;;;;;;;6.74;93.54;98336.19;5116451;27;20042;-68
2023/10/19 08:52:04;;;;;;;4.85;4.00;;;;;;;6.66;93.41;98343.88;5097941;27;20041;-68
2023/10/19 08:54:30;;;;;;;6.47;4.28;;;;;;;6.65;93.83;98343.03;5098110;27;20042;-69
2023/10/19 08:56:55;;;;;;;4.03;3.55;;;;;;;6.70;94.81;98351.44;5116717;27;20038;-70
2023/10/19 08:59:20;;;;;;;4.45;3.63;;;;;;;6.70;94.39;98343.50;5083802;27;20051;-68
2023/10/19 09:01:45;;;;;;;5.97;4.43;;;;;;;6.71;94.91;98350.50;5100213;27;20046;-67
2023/10/19 09:04:13;;;;;;;5.85;4.32;;;;;;;6.72;94.88;98352.19;5099658;27;20057;-68
2023/10/19 09:06:41;;;;;;;4.10;3.67;;;;;;;6.68;95.47;98352.53;5080003;27;20035;-68
2023/10/19 09:09:09;;;;;;;7.97;4.05;;;;;;;6.70;94.92;98353.25;5097979;27;20062;-69
2023/10/19 09:11:33;;;;;;;6.93;4.47;;;;;;;6.73;95.31;98348.56;5096208;27;20039;-68
2023/10/19 09:13:58;;;;;;;6.50;4.45;;;;;;;6.88;95.39;98357.16;5076886;27;20053;-68
2023/10/19 09:16:23;;;;;;;5.53;4.03;;;;;;;7.00;96.39;98360.66;5095812;27;20034;-69
2023/10/19 09:18:50;;;;;;;5.90;4.35;;;;;;;7.08;95.91;98360.91;5077226;27;20100;-68
2023/10/19 09:21:25;;;;;;;5.45;3.83;;;;;;;7.19;96.77;98361.75;5095720;27;20107;-68
2023/10/19 09:23:55;;;;;;;6.22;4.70;;;;;;;7.28;96.15;98360.19;5060198;28;20046;-69
2023/10/19 09:26:21;;;;;;;9.07;4.30;;;;;;;7.34;97.40;98362.34;5077298;27;20039;-69
2023/10/19 09:28:48;;;;;;;4.85;4.05;;;;;;;7.44;97.51;98360.69;5090178;27;20091;-68
2023/10/19 09:31:16;;;;;;;7.70;4.53;;;;;;;7.55;97.13;98354.53;5097406;27;20122;-68
2023/10/19 09:33:41;;;;;;;4.93;3.80;;;;;;;7.62;97.33;98348.59;5116098;27;20038;-68
2023/10/19 09:36:12;;;;;;;5.95;4.20;;;;;;;7.71;96.17;98354.97;5116014;27;20104;-68
2023/10/19 09:38:37;;;;;;;4.85;4.05;;;;;;;7.79;96.91;98354.38;5094154;28;20050;-68
2023/10/19 09:41:03;;;;;;;4.95;3.97;;;;;;;7.81;95.90;98353.25;5100879;27;20038;-68
2023/10/19 09:43:35;;;;;;;6.78;4.90;;;;;;;7.88;96.37;98357.13;5115852;27;20043;-68
2023/10/19 09:46:05;;;;;;;4.82;4.32;;;;;;;7.88;94.45;98361.59;5114623;27;20043;-68
2023/10/19 09:48:35;;;;;;;4.10;3.67;;;;;;;7.90;95.57;98357.81;5097373;27;20137;-68
2023/10/19 09:51:00;;;;;;;4.75;4.20;;;;;;;7.91;94.63;98348.06;5115891;27;20039;-68
2023/10/19 09:53:31;;;;;;;4.90;3.88;;;;;;;8.05;94.08;98353.09;5097280;27;20083;-68
2023/10/19 09:55:58;;;;;;;3.92;3.20;;;;;;;8.16;93.85;98349.56;5115948;27;20436;-68
2023/10/19 09:58:37;;;;;;;5.05;2.63;;;;;;;8.30;91.65;98339.50;5116166;27;20412;-69
2023/10/19 10:01:11;;;;;;;4.40;3.25;;;;;;;8.38;90.31;98336.22;5095870;28;20115;-69
2023/10/19 10:03:43;;;;;;;6.32;3.58;;;;;;;8.70;90.95;98350.28;5096100;28;20050;-70
2023/10/19 10:06:08;;;;;;;5.03;3.58;;;;;;;8.88;88.84;98345.25;5060441;28;20126;-68
2023/10/19 10:08:35;;;;;;;3.58;3.05;;;;;;;9.02;88.35;98346.75;5076655;28;20047;-69
2023/10/19 10:11:26;;;;;;;3.90;3.13;;;;;;;9.21;86.93;98348.66;5095196;28;20050;-68
2023/10/19 10:13:51;;;;;;;3.00;2.70;;;;;;;9.12;85.25;98333.50;5097586;27;20501;-69
2023/10/19 10:16:18;;;;;;;3.60;2.72;;;;;;;9.18;84.41;98352.41;5076861;28;20408;-68
2023/10/19 10:18:45;;;;;;;3.97;3.15;;;;;;;9.15;84.11;98346.50;5094266;28;20049;-70
2023/10/19 10:21:17;;;;;;;3.45;3.00;;;;;;;9.13;83.60;98344.00;5089813;28;20038;-68
2023/10/19 10:23:44;;;;;;;5.40;3.33;;;;;;;8.98;84.32;98355.94;5095034;28;20129;-70
2023/10/19 10:26:13;;;;;;;4.28;3.63;;;;;;;8.76;83.27;98353.41;5101779;27;20043;-69
2023/10/19 10:28:39;;;;;;;4.47;3.60;;;;;;;8.57;81.21;98351.47;5083674;27;20752;-69
2023/10/19 10:31:07;;;;;;;3.83;3.28;;;;;;;8.46;82.26;98356.84;5070304;27;20141;-69
2023/10/19 10:33:58;;;;;;;5.95;3.67;;;;;;;8.37;82.70;98353.13;5083811;27;20050;-68
2023/10/19 10:36:23;;;;;;;4.68;3.63;;;;;;;8.00;83.75;98339.38;5083137;27;20046;-69
2023/10/19 10:38:50;;;;;;;5.10;3.75;;;;;;;7.94;83.94;98345.16;5083538;27;20068;-70
2023/10/19 10:41:24;;;;;;;5.45;3.58;;;;;;;7.99;85.04;98345.63;5111212;27;20485;-68
2023/10/19 10:43:54;;;;;;;7.45;4.53;;;;;;;8.00;85.33;98340.22;5104243;27;20446;-70
2023/10/19 10:46:24;;;;;;;4.88;4.13;;;;;;;7.98;87.11;98351.91;5104008;27;20129;-69
2023/10/19 10:48:49;;;;;;;3.92;3.10;;;;;;;7.84;87.17;98360.97;5083089;27;20035;-70
2023/10/19 10:51:25;;;;;;;3.72;2.95;;;;;;;7.79;86.32;98357.03;5090395;27;20050;-69
2023/10/19 10:53:51;;;;;;;5.53;4.00;;;;;;;7.63;86.12;98362.72;5104482;27;20042;-69
2023/10/19 10:56:17;;;;;;;6.95;4.22;;;;;;;7.48;87.28;98348.84;5101242;27;20062;-70
2023/10/19 10:58:43;;;;;;;4.93;3.83;;;;;;;7.45;86.29;98369.50;5117999;27;20446;-67
2023/10/19 11:01:10;;;;;;;4.50;3.53;;;;;;;7.40;86.87;98369.84;5082098;27;20030;-68
2023/10/19 11:03:34;;;;;;;4.45;3.50;;;;;;;7.34;87.61;98367.66;5109732;27;20050;-68
2023/10/19 11:06:10;;;;;;;5.70;4.15;;;;;;;7.35;88.82;98374.66;5115283;27;20130;-68
2023/10/19 11:08:36;;;;;;;4.70;3.58;;;;;;;7.26;88.94;98360.31;5099031;27;20074;-68
2023/10/19 11:11:12;;;;;;;4.78;2.95;;;;;;;7.23;89.88;98371.16;5099784;27;20035;-69
2023/10/19 11:13:38;;;;;;;4.30;3.10;;;;;;;7.10;89.07;98365.13;5101575;27;20146;-68
2023/10/19 11:16:05;;;;;;;2.35;2.15;;;;;;;7.13;89.86;98374.63;5099798;27;20417;-67
2023/10/19 11:18:45;;;;;;;3.70;2.58;;;;;;;7.14;90.53;98363.91;5103907;27;20045;-68
2023/10/19 11:21:18;;;;;;;3.25;2.38;;;;;;;7.23;90.23;98367.66;5108557;27;20031;-69
2023/10/19 11:23:43;;;;;;;2.65;2.25;;;;;;;7.35;90.49;98364.03;5098654;27;20096;-69
2023/10/19 11:26:10;;;;;;;2.67;2.22;;;;;;;7.47;91.69;98372.84;5098723;27;20043;-69
2023/10/19 11:28:38;;;;;;;3.30;2.45;;;;;;;7.60;91.24;98363.78;5113442;27;20050;-68
2023/10/19 11:31:16;;;;;;;5.20;2.67;;;;;;;7.78;92.10;98366.78;5105922;27;20038;-68
2023/10/19 11:33:43;;;;;;;2.40;1.90;;;;;;;7.87;90.92;98365.22;5115943;27;20038;-68
2023/10/19 11:36:08;;;;;;;4.20;2.60;;;;;;;7.95;91.91;98368.91;5099077;27;20066;-68
2023/10/19 11:38:33;;;;;;;2.88;2.28;;;;;;;8.05;92.25;98362.84;5095989;27;20042;-70
2023/10/19 11:40:57;;;;;;;3.70;2.65;;;;;;;8.09;91.86;98353.69;5094261;27;20030;-71
2023/10/19 11:43:22;;;;;;;5.00;2.65;;;;;;;8.14;90.13;98360.28;5076673;27;20035;-71
2023/10/19 11:45:47;;;;;;;3.95;2.95;;;;;;;8.17;90.92;98356.56;5100565;27;20046;-71
2023/10/19 11:48:11;;;;;;;3.25;2.67;;;;;;;8.19;90.05;98363.44;5101706;27;20101;-72